sensor_id;sensor_type;location;lat;lon;timestamp;temperature;humidity
71173;DHT22;58875;51.996;4.504;2024-02-21T00:01:50;10.26;82.53
71173;DHT22;58875;51.996;4.504;2024-02-21T00:04:15;10.29;82.28
71173;DHT22;58875;51.996;4.504;2024-02-21T00:06:41;10.34;82.31
71173;DHT22;58875;51.996;4.504;2024-02-21T00:09:06;10.28;82.30
71173;DHT22;58875;51.996;4.504;2024-02-21T00:11:32;10.18;82.41
71173;DHT22;58875;51.996;4.504;2024-02-21T00:13:58;10.25;82.39
71173;DHT22;58875;51.996;4.504;2024-02-21T00:16:23;10.24;82.46
71173;DHT22;58875;51.996;4.504;2024-02-21T00:18:49;10.25;82.40
71173;DHT22;58875;51.996;4.504;2024-02-21T00:21:14;10.32;82.21
71173;DHT22;58875;51.996;4.504;2024-02-21T00:23:44;10.29;82.31
71173;DHT22;58875;51.996;4.504;2024-02-21T00:26:12;10.31;82.28
71173;DHT22;58875;51.996;4.504;2024-02-21T00:28:38;10.24;82.40
71173;DHT22;58875;51.996;4.504;2024-02-21T00:31:03;10.24;82.44
71173;DHT22;58875;51.996;4.504;2024-02-21T00:33:29;10.25;82.39
71173;DHT22;58875;51.996;4.504;2024-02-21T00:35:54;10.28;82.37
71173;DHT22;58875;51.996;4.504;2024-02-21T00:38:20;10.35;82.26
71173;DHT22;58875;51.996;4.504;2024-02-21T00:40:46;10.36;82.19
71173;DHT22;58875;51.996;4.504;2024-02-21T00:43:11;10.35;82.34
71173;DHT22;58875;51.996;4.504;2024-02-21T00:45:36;10.28;82.53
71173;DHT22;58875;51.996;4.504;2024-02-21T00:48:02;10.25;82.50
71173;DHT22;58875;51.996;4.504;2024-02-21T00:50:28;10.25;82.47
71173;DHT22;58875;51.996;4.504;2024-02-21T00:52:53;10.34;82.28
71173;DHT22;58875;51.996;4.504;2024-02-21T00:55:19;10.28;82.34
71173;DHT22;58875;51.996;4.504;2024-02-21T00:57:44;10.26;82.49
71173;DHT22;58875;51.996;4.504;2024-02-21T01:00:10;10.28;82.45
71173;DHT22;58875;51.996;4.504;2024-02-21T01:02:36;10.31;82.25
71173;DHT22;58875;51.996;4.504;2024-02-21T01:05:02;10.29;82.20
71173;DHT22;58875;51.996;4.504;2024-02-21T01:07:27;10.24;82.41
71173;DHT22;58875;51.996;4.504;2024-02-21T01:09:53;10.22;82.52
71173;DHT22;58875;51.996;4.504;2024-02-21T01:12:18;10.24;82.46
71173;DHT22;58875;51.996;4.504;2024-02-21T01:14:44;10.28;82.32
71173;DHT22;58875;51.996;4.504;2024-02-21T01:17:12;10.29;82.37
71173;DHT22;58875;51.996;4.504;2024-02-21T01:19:37;10.31;82.46
71173;DHT22;58875;51.996;4.504;2024-02-21T01:22:04;10.22;82.47
71173;DHT22;58875;51.996;4.504;2024-02-21T01:24:29;10.26;82.47
71173;DHT22;58875;51.996;4.504;2024-02-21T01:26:55;10.31;82.52
71173;DHT22;58875;51.996;4.504;2024-02-21T01:29:20;10.32;82.15
71173;DHT22;58875;51.996;4.504;2024-02-21T01:31:46;10.25;82.18
71173;DHT22;58875;51.996;4.504;2024-02-21T01:34:13;10.26;82.30
71173;DHT22;58875;51.996;4.504;2024-02-21T01:36:38;10.25;82.28
71173;DHT22;58875;51.996;4.504;2024-02-21T01:39:04;10.25;82.23
71173;DHT22;58875;51.996;4.504;2024-02-21T01:41:30;10.19;82.45
71173;DHT22;58875;51.996;4.504;2024-02-21T01:43:56;10.24;82.33
71173;DHT22;58875;51.996;4.504;2024-02-21T01:46:23;10.26;82.17
71173;DHT22;58875;51.996;4.504;2024-02-21T01:48:49;10.25;82.18
71173;DHT22;58875;51.996;4.504;2024-02-21T01:51:15;10.29;82.34
71173;DHT22;58875;51.996;4.504;2024-02-21T01:53:45;10.29;82.25
71173;DHT22;58875;51.996;4.504;2024-02-21T01:56:12;10.29;82.08
71173;DHT22;58875;51.996;4.504;2024-02-21T01:58:40;10.26;82.17
71173;DHT22;58875;51.996;4.504;2024-02-21T02:01:07;10.28;82.20
71173;DHT22;58875;51.996;4.504;2024-02-21T02:03:33;10.29;82.18
71173;DHT22;58875;51.996;4.504;2024-02-21T02:05:59;10.28;82.24
71173;DHT22;58875;51.996;4.504;2024-02-21T02:08:26;10.29;82.13
71173;DHT22;58875;51.996;4.504;2024-02-21T02:10:51;10.28;82.14
71173;DHT22;58875;51.996;4.504;2024-02-21T02:13:17;10.22;82.29
71173;DHT22;58875;51.996;4.504;2024-02-21T02:15:45;10.25;82.14
71173;DHT22;58875;51.996;4.504;2024-02-21T02:18:12;10.31;82.09
71173;DHT22;58875;51.996;4.504;2024-02-21T02:20:38;10.26;82.07
71173;DHT22;58875;51.996;4.504;2024-02-21T02:25:40;10.31;82.11
71173;DHT22;58875;51.996;4.504;2024-02-21T02:28:06;10.31;82.03
71173;DHT22;58875;51.996;4.504;2024-02-21T02:30:33;10.22;82.11
71173;DHT22;58875;51.996;4.504;2024-02-21T02:33:05;10.22;82.20
71173;DHT22;58875;51.996;4.504;2024-02-21T02:35:32;10.19;82.25
71173;DHT22;58875;51.996;4.504;2024-02-21T02:37:57;10.24;82.24
71173;DHT22;58875;51.996;4.504;2024-02-21T02:40:23;10.22;82.27
71173;DHT22;58875;51.996;4.504;2024-02-21T02:42:50;10.22;82.13
71173;DHT22;58875;51.996;4.504;2024-02-21T02:45:17;10.22;82.07
71173;DHT22;58875;51.996;4.504;2024-02-21T02:47:46;10.21;81.92
71173;DHT22;58875;51.996;4.504;2024-02-21T02:50:12;10.24;82.14
71173;DHT22;58875;51.996;4.504;2024-02-21T02:52:38;10.25;81.80
71173;DHT22;58875;51.996;4.504;2024-02-21T02:55:04;10.19;81.74
71173;DHT22;58875;51.996;4.504;2024-02-21T02:57:30;10.24;81.79
71173;DHT22;58875;51.996;4.504;2024-02-21T02:59:56;10.31;81.70
71173;DHT22;58875;51.996;4.504;2024-02-21T03:02:21;10.29;81.77
71173;DHT22;58875;51.996;4.504;2024-02-21T03:04:47;10.31;81.59
71173;DHT22;58875;51.996;4.504;2024-02-21T03:07:14;10.26;81.66
71173;DHT22;58875;51.996;4.504;2024-02-21T03:09:40;10.26;81.88
71173;DHT22;58875;51.996;4.504;2024-02-21T03:12:08;10.19;81.86
71173;DHT22;58875;51.996;4.504;2024-02-21T03:14:34;10.24;81.90
71173;DHT22;58875;51.996;4.504;2024-02-21T03:17:01;10.26;81.71
71173;DHT22;58875;51.996;4.504;2024-02-21T03:19:28;10.29;81.76
71173;DHT22;58875;51.996;4.504;2024-02-21T03:21:54;10.35;81.58
71173;DHT22;58875;51.996;4.504;2024-02-21T03:24:20;10.31;81.50
71173;DHT22;58875;51.996;4.504;2024-02-21T03:26:46;10.29;81.62
71173;DHT22;58875;51.996;4.504;2024-02-21T03:29:14;10.31;81.60
71173;DHT22;58875;51.996;4.504;2024-02-21T03:31:39;10.29;81.64
71173;DHT22;58875;51.996;4.504;2024-02-21T03:34:05;10.35;81.55
71173;DHT22;58875;51.996;4.504;2024-02-21T03:36:31;10.35;81.54
71173;DHT22;58875;51.996;4.504;2024-02-21T03:38:56;10.32;81.40
71173;DHT22;58875;51.996;4.504;2024-02-21T03:41:22;10.34;81.37
71173;DHT22;58875;51.996;4.504;2024-02-21T03:43:47;10.31;81.38
71173;DHT22;58875;51.996;4.504;2024-02-21T03:46:14;10.25;81.57
71173;DHT22;58875;51.996;4.504;2024-02-21T03:48:40;10.21;81.62
71173;DHT22;58875;51.996;4.504;2024-02-21T03:51:06;10.22;81.67
71173;DHT22;58875;51.996;4.504;2024-02-21T03:53:31;10.22;81.55
71173;DHT22;58875;51.996;4.504;2024-02-21T03:55:57;10.14;81.81
71173;DHT22;58875;51.996;4.504;2024-02-21T03:58:28;10.12;81.88
71173;DHT22;58875;51.996;4.504;2024-02-21T04:00:53;10.15;82.04
71173;DHT22;58875;51.996;4.504;2024-02-21T04:03:19;10.09;81.81
71173;DHT22;58875;51.996;4.504;2024-02-21T04:05:45;10.07;81.82
71173;DHT22;58875;51.996;4.504;2024-02-21T04:08:11;10.07;82.02
71173;DHT22;58875;51.996;4.504;2024-02-21T04:10:37;10.09;82.08
71173;DHT22;58875;51.996;4.504;2024-02-21T04:13:05;10.11;81.74
71173;DHT22;58875;51.996;4.504;2024-02-21T04:15:34;10.08;81.90
71173;DHT22;58875;51.996;4.504;2024-02-21T04:18:00;10.11;81.97
71173;DHT22;58875;51.996;4.504;2024-02-21T04:20:26;10.07;81.90
71173;DHT22;58875;51.996;4.504;2024-02-21T04:22:51;10.09;82.05
71173;DHT22;58875;51.996;4.504;2024-02-21T04:25:17;10.07;82.05
71173;DHT22;58875;51.996;4.504;2024-02-21T04:27:42;10.04;81.95
71173;DHT22;58875;51.996;4.504;2024-02-21T04:30:09;10.04;82.18
71173;DHT22;58875;51.996;4.504;2024-02-21T04:32:35;10.05;81.86
71173;DHT22;58875;51.996;4.504;2024-02-21T04:35:01;10.01;81.99
71173;DHT22;58875;51.996;4.504;2024-02-21T04:37:26;10.09;82.00
71173;DHT22;58875;51.996;4.504;2024-02-21T04:39:52;10.18;81.73
71173;DHT22;58875;51.996;4.504;2024-02-21T04:42:17;10.15;81.57
71173;DHT22;58875;51.996;4.504;2024-02-21T04:44:43;10.11;81.71
71173;DHT22;58875;51.996;4.504;2024-02-21T04:47:09;10.07;81.72
71173;DHT22;58875;51.996;4.504;2024-02-21T04:49:35;10.02;81.79
71173;DHT22;58875;51.996;4.504;2024-02-21T04:52:01;10.05;81.87
71173;DHT22;58875;51.996;4.504;2024-02-21T04:54:27;10.12;81.82
71173;DHT22;58875;51.996;4.504;2024-02-21T04:56:52;10.08;81.74
71173;DHT22;58875;51.996;4.504;2024-02-21T04:59:18;10.07;81.74
71173;DHT22;58875;51.996;4.504;2024-02-21T05:01:44;10.15;81.44
71173;DHT22;58875;51.996;4.504;2024-02-21T05:04:09;10.11;81.60
71173;DHT22;58875;51.996;4.504;2024-02-21T05:06:39;10.08;81.87
71173;DHT22;58875;51.996;4.504;2024-02-21T05:09:05;10.08;81.75
71173;DHT22;58875;51.996;4.504;2024-02-21T05:11:31;10.11;81.86
71173;DHT22;58875;51.996;4.504;2024-02-21T05:13:56;10.07;81.65
71173;DHT22;58875;51.996;4.504;2024-02-21T05:16:22;10.08;81.71
71173;DHT22;58875;51.996;4.504;2024-02-21T05:18:48;10.09;81.71
71173;DHT22;58875;51.996;4.504;2024-02-21T05:21:13;10.05;81.82
71173;DHT22;58875;51.996;4.504;2024-02-21T05:23:39;10.05;81.65
71173;DHT22;58875;51.996;4.504;2024-02-21T05:26:05;10.05;81.77
71173;DHT22;58875;51.996;4.504;2024-02-21T05:28:31;10.08;81.93
71173;DHT22;58875;51.996;4.504;2024-02-21T05:30:57;10.17;81.57
71173;DHT22;58875;51.996;4.504;2024-02-21T05:33:22;10.15;81.53
71173;DHT22;58875;51.996;4.504;2024-02-21T05:35:48;10.12;81.43
71173;DHT22;58875;51.996;4.504;2024-02-21T05:38:14;10.07;81.63
71173;DHT22;58875;51.996;4.504;2024-02-21T05:40:40;10.14;81.54
71173;DHT22;58875;51.996;4.504;2024-02-21T05:43:10;10.09;81.61
71173;DHT22;58875;51.996;4.504;2024-02-21T05:45:36;10.14;81.59
71173;DHT22;58875;51.996;4.504;2024-02-21T05:48:03;10.19;81.32
71173;DHT22;58875;51.996;4.504;2024-02-21T05:50:29;10.22;81.20
71173;DHT22;58875;51.996;4.504;2024-02-21T05:52:55;10.18;81.41
71173;DHT22;58875;51.996;4.504;2024-02-21T05:55:21;10.05;81.48
71173;DHT22;58875;51.996;4.504;2024-02-21T05:57:47;10.04;81.87
71173;DHT22;58875;51.996;4.504;2024-02-21T06:00:13;9.95;81.82
71173;DHT22;58875;51.996;4.504;2024-02-21T06:02:39;10.08;81.90
71173;DHT22;58875;51.996;4.504;2024-02-21T06:05:06;10.05;81.54
71173;DHT22;58875;51.996;4.504;2024-02-21T06:07:33;10.08;81.65
71173;DHT22;58875;51.996;4.504;2024-02-21T06:10:01;10.05;81.73
71173;DHT22;58875;51.996;4.504;2024-02-21T06:12:26;10.04;81.72
71173;DHT22;58875;51.996;4.504;2024-02-21T06:14:52;10.04;81.75
71173;DHT22;58875;51.996;4.504;2024-02-21T06:17:18;10.08;81.70
71173;DHT22;58875;51.996;4.504;2024-02-21T06:19:44;10.08;81.51
71173;DHT22;58875;51.996;4.504;2024-02-21T06:22:12;10.07;81.71
71173;DHT22;58875;51.996;4.504;2024-02-21T06:24:38;10.09;81.80
71173;DHT22;58875;51.996;4.504;2024-02-21T06:27:08;10.01;81.79
71173;DHT22;58875;51.996;4.504;2024-02-21T06:29:34;10.02;81.79
71173;DHT22;58875;51.996;4.504;2024-02-21T06:32:00;10.07;81.82
71173;DHT22;58875;51.996;4.504;2024-02-21T06:34:26;10.01;81.84
71173;DHT22;58875;51.996;4.504;2024-02-21T06:36:52;10.08;82.13
71173;DHT22;58875;51.996;4.504;2024-02-21T06:39:17;10.02;81.85
71173;DHT22;58875;51.996;4.504;2024-02-21T06:41:43;9.98;81.94
71173;DHT22;58875;51.996;4.504;2024-02-21T06:44:09;9.98;81.90
71173;DHT22;58875;51.996;4.504;2024-02-21T06:46:35;9.90;81.96
71173;DHT22;58875;51.996;4.504;2024-02-21T06:49:01;9.97;82.03
71173;DHT22;58875;51.996;4.504;2024-02-21T06:51:27;9.94;81.90
71173;DHT22;58875;51.996;4.504;2024-02-21T06:53:54;9.97;81.81
71173;DHT22;58875;51.996;4.504;2024-02-21T06:56:19;9.99;81.91
71173;DHT22;58875;51.996;4.504;2024-02-21T06:58:45;10.05;81.87
71173;DHT22;58875;51.996;4.504;2024-02-21T07:01:11;9.98;81.79
71173;DHT22;58875;51.996;4.504;2024-02-21T07:03:37;9.97;81.84
71173;DHT22;58875;51.996;4.504;2024-02-21T07:06:02;9.94;81.88
71173;DHT22;58875;51.996;4.504;2024-02-21T07:08:28;9.95;81.93
71173;DHT22;58875;51.996;4.504;2024-02-21T07:10:54;9.93;82.05
71173;DHT22;58875;51.996;4.504;2024-02-21T07:13:19;9.93;81.98
71173;DHT22;58875;51.996;4.504;2024-02-21T07:15:45;9.91;82.15
71173;DHT22;58875;51.996;4.504;2024-02-21T07:18:11;9.98;81.97
71173;DHT22;58875;51.996;4.504;2024-02-21T07:20:36;9.94;82.14
71173;DHT22;58875;51.996;4.504;2024-02-21T07:23:03;9.97;82.12
71173;DHT22;58875;51.996;4.504;2024-02-21T07:25:29;9.88;82.31
71173;DHT22;58875;51.996;4.504;2024-02-21T07:27:55;9.95;82.18
71173;DHT22;58875;51.996;4.504;2024-02-21T07:30:21;9.81;82.31
71173;DHT22;58875;51.996;4.504;2024-02-21T07:32:49;9.90;82.31
71173;DHT22;58875;51.996;4.504;2024-02-21T07:35:15;9.91;82.36
71173;DHT22;58875;51.996;4.504;2024-02-21T07:37:40;9.84;82.50
71173;DHT22;58875;51.996;4.504;2024-02-21T07:40:06;9.74;82.62
71173;DHT22;58875;51.996;4.504;2024-02-21T07:42:37;9.76;82.83
71173;DHT22;58875;51.996;4.504;2024-02-21T07:45:03;9.76;82.75
71173;DHT22;58875;51.996;4.504;2024-02-21T07:47:28;9.74;82.73
71173;DHT22;58875;51.996;4.504;2024-02-21T07:49:54;9.81;82.67
71173;DHT22;58875;51.996;4.504;2024-02-21T07:52:20;9.93;82.58
71173;DHT22;58875;51.996;4.504;2024-02-21T07:54:45;10.01;82.36
71173;DHT22;58875;51.996;4.504;2024-02-21T07:57:11;9.85;82.56
71173;DHT22;58875;51.996;4.504;2024-02-21T07:59:36;9.84;82.26
71173;DHT22;58875;51.996;4.504;2024-02-21T08:02:02;9.77;82.38
71173;DHT22;58875;51.996;4.504;2024-02-21T08:04:27;9.73;82.61
71173;DHT22;58875;51.996;4.504;2024-02-21T08:06:54;9.73;82.40
71173;DHT22;58875;51.996;4.504;2024-02-21T08:09:27;9.77;82.58
71173;DHT22;58875;51.996;4.504;2024-02-21T08:11:54;9.74;82.56
71173;DHT22;58875;51.996;4.504;2024-02-21T08:14:20;9.77;82.51
71173;DHT22;58875;51.996;4.504;2024-02-21T08:16:46;9.87;82.17
71173;DHT22;58875;51.996;4.504;2024-02-21T08:19:12;9.80;82.34
71173;DHT22;58875;51.996;4.504;2024-02-21T08:21:37;9.81;82.01
71173;DHT22;58875;51.996;4.504;2024-02-21T08:24:03;9.84;82.07
71173;DHT22;58875;51.996;4.504;2024-02-21T08:26:30;9.80;82.07
71173;DHT22;58875;51.996;4.504;2024-02-21T08:28:59;9.76;82.33
71173;DHT22;58875;51.996;4.504;2024-02-21T08:31:26;9.77;82.38
71173;DHT22;58875;51.996;4.504;2024-02-21T08:34:00;9.81;82.00
71173;DHT22;58875;51.996;4.504;2024-02-21T08:36:34;9.73;82.33
71173;DHT22;58875;51.996;4.504;2024-02-21T08:39:00;9.66;82.34
71173;DHT22;58875;51.996;4.504;2024-02-21T08:41:27;9.70;82.44
71173;DHT22;58875;51.996;4.504;2024-02-21T08:43:53;9.78;82.12
71173;DHT22;58875;51.996;4.504;2024-02-21T08:46:20;9.81;81.81
71173;DHT22;58875;51.996;4.504;2024-02-21T08:48:50;9.95;81.65
71173;DHT22;58875;51.996;4.504;2024-02-21T08:51:19;9.99;81.56
71173;DHT22;58875;51.996;4.504;2024-02-21T08:53:45;9.91;81.27
71173;DHT22;58875;51.996;4.504;2024-02-21T08:56:11;9.97;81.74
71173;DHT22;58875;51.996;4.504;2024-02-21T08:58:38;9.99;81.60
71173;DHT22;58875;51.996;4.504;2024-02-21T09:01:05;9.99;81.43
71173;DHT22;58875;51.996;4.504;2024-02-21T09:03:33;10.15;81.49
71173;DHT22;58875;51.996;4.504;2024-02-21T09:05:59;10.09;80.82
71173;DHT22;58875;51.996;4.504;2024-02-21T09:08:26;10.15;81.11
71173;DHT22;58875;51.996;4.504;2024-02-21T09:10:52;10.05;80.79
71173;DHT22;58875;51.996;4.504;2024-02-21T09:13:18;10.21;80.74
71173;DHT22;58875;51.996;4.504;2024-02-21T09:15:44;10.12;80.46
71173;DHT22;58875;51.996;4.504;2024-02-21T09:18:10;10.18;80.74
71173;DHT22;58875;51.996;4.504;2024-02-21T09:20:35;10.15;80.46
71173;DHT22;58875;51.996;4.504;2024-02-21T09:23:01;10.24;80.16
71173;DHT22;58875;51.996;4.504;2024-02-21T09:25:26;10.29;80.17
71173;DHT22;58875;51.996;4.504;2024-02-21T09:27:54;10.39;79.96
71173;DHT22;58875;51.996;4.504;2024-02-21T09:30:20;10.26;79.74
71173;DHT22;58875;51.996;4.504;2024-02-21T09:32:46;10.29;79.72
71173;DHT22;58875;51.996;4.504;2024-02-21T09:35:12;10.42;79.68
71173;DHT22;58875;51.996;4.504;2024-02-21T09:37:39;10.34;79.13
71173;DHT22;58875;51.996;4.504;2024-02-21T09:40:05;10.36;79.53
71173;DHT22;58875;51.996;4.504;2024-02-21T09:42:38;10.55;79.17
71173;DHT22;58875;51.996;4.504;2024-02-21T09:50:07;10.63;78.57
71173;DHT22;58875;51.996;4.504;2024-02-21T09:52:35;10.65;78.26
71173;DHT22;58875;51.996;4.504;2024-02-21T09:55:02;10.62;78.30
71173;DHT22;58875;51.996;4.504;2024-02-21T09:57:30;10.73;78.16
71173;DHT22;58875;51.996;4.504;2024-02-21T09:59:57;10.72;77.94
71173;DHT22;58875;51.996;4.504;2024-02-21T10:02:24;10.72;77.91
71173;DHT22;58875;51.996;4.504;2024-02-21T10:04:50;10.73;78.03
71173;DHT22;58875;51.996;4.504;2024-02-21T10:07:15;10.62;78.17
71173;DHT22;58875;51.996;4.504;2024-02-21T10:09:41;10.63;78.05
71173;DHT22;58875;51.996;4.504;2024-02-21T10:12:11;10.57;78.03
71173;DHT22;58875;51.996;4.504;2024-02-21T10:14:37;10.59;77.88
71173;DHT22;58875;51.996;4.504;2024-02-21T10:17:03;10.66;77.81
71173;DHT22;58875;51.996;4.504;2024-02-21T10:19:34;10.63;77.39
71173;DHT22;58875;51.996;4.504;2024-02-21T10:22:05;10.73;77.44
71173;DHT22;58875;51.996;4.504;2024-02-21T10:24:34;10.70;77.22
71173;DHT22;58875;51.996;4.504;2024-02-21T10:27:07;10.70;77.31
71173;DHT22;58875;51.996;4.504;2024-02-21T10:29:40;10.66;77.35
71173;DHT22;58875;51.996;4.504;2024-02-21T10:34:37;10.75;76.70
71173;DHT22;58875;51.996;4.504;2024-02-21T10:37:08;10.72;77.12
71173;DHT22;58875;51.996;4.504;2024-02-21T10:39:37;10.77;77.30
71173;DHT22;58875;51.996;4.504;2024-02-21T10:42:03;10.80;76.76
71173;DHT22;58875;51.996;4.504;2024-02-21T10:44:31;10.73;76.80
71173;DHT22;58875;51.996;4.504;2024-02-21T10:46:57;10.67;77.28
71173;DHT22;58875;51.996;4.504;2024-02-21T10:49:24;10.72;76.85
71173;DHT22;58875;51.996;4.504;2024-02-21T10:51:54;10.73;77.19
71173;DHT22;58875;51.996;4.504;2024-02-21T10:57:06;10.76;77.18
71173;DHT22;58875;51.996;4.504;2024-02-21T10:59:32;10.56;77.17
71173;DHT22;58875;51.996;4.504;2024-02-21T11:01:58;10.52;77.20
71173;DHT22;58875;51.996;4.504;2024-02-21T11:04:25;10.67;77.11
71173;DHT22;58875;51.996;4.504;2024-02-21T11:06:52;10.80;77.24
71173;DHT22;58875;51.996;4.504;2024-02-21T11:09:18;10.93;76.42
71173;DHT22;58875;51.996;4.504;2024-02-21T11:11:44;11.00;75.96
71173;DHT22;58875;51.996;4.504;2024-02-21T11:14:20;11.16;75.66
71173;DHT22;58875;51.996;4.504;2024-02-21T11:16:47;11.20;75.59
71173;DHT22;58875;51.996;4.504;2024-02-21T11:19:25;11.17;74.89
71173;DHT22;58875;51.996;4.504;2024-02-21T11:21:52;11.04;75.58
71173;DHT22;58875;51.996;4.504;2024-02-21T11:24:31;10.96;75.70
71173;DHT22;58875;51.996;4.504;2024-02-21T11:27:19;11.18;75.74
71173;DHT22;58875;51.996;4.504;2024-02-21T11:29:47;11.35;75.30
71173;DHT22;58875;51.996;4.504;2024-02-21T11:32:18;11.35;74.53
71173;DHT22;58875;51.996;4.504;2024-02-21T11:37:25;11.37;74.54
71173;DHT22;58875;51.996;4.504;2024-02-21T11:39:53;11.48;74.00
71173;DHT22;58875;51.996;4.504;2024-02-21T11:42:19;11.18;74.67
71173;DHT22;58875;51.996;4.504;2024-02-21T11:44:45;11.26;74.74
71173;DHT22;58875;51.996;4.504;2024-02-21T11:47:11;11.28;74.25
71173;DHT22;58875;51.996;4.504;2024-02-21T11:49:47;11.27;74.29
71173;DHT22;58875;51.996;4.504;2024-02-21T11:52:15;11.20;74.32
71173;DHT22;58875;51.996;4.504;2024-02-21T11:54:41;11.06;75.49
71173;DHT22;58875;51.996;4.504;2024-02-21T11:57:07;11.03;74.86
71173;DHT22;58875;51.996;4.504;2024-02-21T11:59:34;11.01;74.91
71173;DHT22;58875;51.996;4.504;2024-02-21T12:02:00;10.92;75.74
71173;DHT22;58875;51.996;4.504;2024-02-21T12:04:26;10.95;75.32
71173;DHT22;58875;51.996;4.504;2024-02-21T12:06:53;11.03;75.26
71173;DHT22;58875;51.996;4.504;2024-02-21T12:09:20;10.90;75.76
71173;DHT22;58875;51.996;4.504;2024-02-21T12:11:46;10.86;75.55
71173;DHT22;58875;51.996;4.504;2024-02-21T12:14:22;10.79;75.75
71173;DHT22;58875;51.996;4.504;2024-02-21T12:16:47;10.75;76.54
71173;DHT22;58875;51.996;4.504;2024-02-21T12:19:14;10.80;76.43
71173;DHT22;58875;51.996;4.504;2024-02-21T12:21:42;10.76;76.20
71173;DHT22;58875;51.996;4.504;2024-02-21T12:26:43;10.77;76.50
71173;DHT22;58875;51.996;4.504;2024-02-21T12:29:09;10.72;76.67
71173;DHT22;58875;51.996;4.504;2024-02-21T12:31:38;10.77;76.59
71173;DHT22;58875;51.996;4.504;2024-02-21T12:34:05;10.77;76.44
71173;DHT22;58875;51.996;4.504;2024-02-21T12:36:31;10.72;76.40
71173;DHT22;58875;51.996;4.504;2024-02-21T12:38:57;10.52;77.09
71173;DHT22;58875;51.996;4.504;2024-02-21T12:41:22;10.53;77.28
71173;DHT22;58875;51.996;4.504;2024-02-21T12:43:48;10.52;77.42
71173;DHT22;58875;51.996;4.504;2024-02-21T12:46:13;10.50;77.36
71173;DHT22;58875;51.996;4.504;2024-02-21T12:48:39;10.52;77.73
71173;DHT22;58875;51.996;4.504;2024-02-21T12:51:05;10.63;77.25
71173;DHT22;58875;51.996;4.504;2024-02-21T12:53:31;10.65;77.11
71173;DHT22;58875;51.996;4.504;2024-02-21T12:55:56;10.59;77.24
71173;DHT22;58875;51.996;4.504;2024-02-21T12:58:22;10.63;77.27
71173;DHT22;58875;51.996;4.504;2024-02-21T13:00:47;10.59;77.16
71173;DHT22;58875;51.996;4.504;2024-02-21T13:03:14;10.52;77.28
71173;DHT22;58875;51.996;4.504;2024-02-21T13:05:39;10.53;77.48
71173;DHT22;58875;51.996;4.504;2024-02-21T13:08:06;10.50;77.64
71173;DHT22;58875;51.996;4.504;2024-02-21T13:10:32;10.48;77.71
71173;DHT22;58875;51.996;4.504;2024-02-21T13:13:01;10.49;77.68
71173;DHT22;58875;51.996;4.504;2024-02-21T13:15:27;10.48;77.65
71173;DHT22;58875;51.996;4.504;2024-02-21T13:17:55;10.46;77.70
71173;DHT22;58875;51.996;4.504;2024-02-21T13:20:20;10.46;77.71
71173;DHT22;58875;51.996;4.504;2024-02-21T13:22:46;10.41;78.04
71173;DHT22;58875;51.996;4.504;2024-02-21T13:25:12;10.48;78.04
71173;DHT22;58875;51.996;4.504;2024-02-21T13:27:41;10.35;78.01
71173;DHT22;58875;51.996;4.504;2024-02-21T13:30:07;10.42;77.97
71173;DHT22;58875;51.996;4.504;2024-02-21T13:32:34;10.48;78.09
71173;DHT22;58875;51.996;4.504;2024-02-21T13:35:00;10.44;77.83
71173;DHT22;58875;51.996;4.504;2024-02-21T13:37:26;10.44;77.53
71173;DHT22;58875;51.996;4.504;2024-02-21T13:39:53;10.49;77.85
71173;DHT22;58875;51.996;4.504;2024-02-21T13:42:19;10.50;77.61
71173;DHT22;58875;51.996;4.504;2024-02-21T13:44:45;10.62;77.64
71173;DHT22;58875;51.996;4.504;2024-02-21T13:47:14;10.56;77.43
71173;DHT22;58875;51.996;4.504;2024-02-21T13:49:39;10.60;78.18
71173;DHT22;58875;51.996;4.504;2024-02-21T13:52:05;10.56;78.14
71173;DHT22;58875;51.996;4.504;2024-02-21T13:54:31;10.59;78.82
71173;DHT22;58875;51.996;4.504;2024-02-21T13:56:56;10.55;78.84
71173;DHT22;58875;51.996;4.504;2024-02-21T13:59:22;10.39;79.00
71173;DHT22;58875;51.996;4.504;2024-02-21T14:01:47;10.32;78.98
71173;DHT22;58875;51.996;4.504;2024-02-21T14:04:13;10.34;79.49
71173;DHT22;58875;51.996;4.504;2024-02-21T14:06:39;10.36;79.77
71173;DHT22;58875;51.996;4.504;2024-02-21T14:09:12;10.35;79.57
71173;DHT22;58875;51.996;4.504;2024-02-21T14:11:37;10.29;79.88
71173;DHT22;58875;51.996;4.504;2024-02-21T14:14:06;10.25;79.84
71173;DHT22;58875;51.996;4.504;2024-02-21T14:16:32;10.29;80.57
71173;DHT22;58875;51.996;4.504;2024-02-21T14:18:58;10.29;80.64
71173;DHT22;58875;51.996;4.504;2024-02-21T14:21:24;10.24;80.77
71173;DHT22;58875;51.996;4.504;2024-02-21T14:23:49;10.17;81.12
71173;DHT22;58875;51.996;4.504;2024-02-21T14:26:15;10.15;81.62
71173;DHT22;58875;51.996;4.504;2024-02-21T14:28:41;10.09;81.58
71173;DHT22;58875;51.996;4.504;2024-02-21T14:31:07;10.12;81.88
71173;DHT22;58875;51.996;4.504;2024-02-21T14:33:35;10.15;81.91
71173;DHT22;58875;51.996;4.504;2024-02-21T14:36:01;9.99;82.44
71173;DHT22;58875;51.996;4.504;2024-02-21T14:38:28;9.97;82.18
71173;DHT22;58875;51.996;4.504;2024-02-21T14:40:53;9.93;82.99
71173;DHT22;58875;51.996;4.504;2024-02-21T14:43:19;9.95;82.93
71173;DHT22;58875;51.996;4.504;2024-02-21T14:45:47;9.93;83.12
71173;DHT22;58875;51.996;4.504;2024-02-21T14:48:13;9.95;83.32
71173;DHT22;58875;51.996;4.504;2024-02-21T14:50:38;9.80;83.17
71173;DHT22;58875;51.996;4.504;2024-02-21T14:53:04;9.84;84.12
71173;DHT22;58875;51.996;4.504;2024-02-21T14:55:29;9.90;84.24
71173;DHT22;58875;51.996;4.504;2024-02-21T14:57:55;9.90;84.25
71173;DHT22;58875;51.996;4.504;2024-02-21T15:00:21;9.85;84.35
71173;DHT22;58875;51.996;4.504;2024-02-21T15:02:55;9.91;84.35
71173;DHT22;58875;51.996;4.504;2024-02-21T15:05:20;9.88;84.52
71173;DHT22;58875;51.996;4.504;2024-02-21T15:07:46;9.93;84.59
71173;DHT22;58875;51.996;4.504;2024-02-21T15:10:11;9.85;84.66
71173;DHT22;58875;51.996;4.504;2024-02-21T15:12:37;9.90;84.86
71173;DHT22;58875;51.996;4.504;2024-02-21T15:15:03;9.87;85.16
71173;DHT22;58875;51.996;4.504;2024-02-21T15:17:29;9.83;84.96
71173;DHT22;58875;51.996;4.504;2024-02-21T15:19:55;9.76;85.46
71173;DHT22;58875;51.996;4.504;2024-02-21T15:22:21;9.70;85.92
71173;DHT22;58875;51.996;4.504;2024-02-21T15:24:48;9.78;85.76
71173;DHT22;58875;51.996;4.504;2024-02-21T15:27:15;9.80;85.72
71173;DHT22;58875;51.996;4.504;2024-02-21T15:29:41;9.69;85.73
71173;DHT22;58875;51.996;4.504;2024-02-21T15:32:06;9.76;85.95
71173;DHT22;58875;51.996;4.504;2024-02-21T15:34:32;9.81;85.86
71173;DHT22;58875;51.996;4.504;2024-02-21T15:36:58;9.85;85.88
71173;DHT22;58875;51.996;4.504;2024-02-21T15:39:24;9.87;86.16
71173;DHT22;58875;51.996;4.504;2024-02-21T15:41:54;9.84;85.95
71173;DHT22;58875;51.996;4.504;2024-02-21T15:44:25;9.85;86.20
71173;DHT22;58875;51.996;4.504;2024-02-21T15:46:51;9.93;86.04
71173;DHT22;58875;51.996;4.504;2024-02-21T15:49:18;9.85;86.02